sensor_id;sensor_type;location;lat;lon;timestamp;temperature;humidity
2050;DHT22;8478;49.208;8.806;2023-04-24T00:31:33;14.50;99.90
2050;DHT22;8478;49.208;8.806;2023-04-24T00:34:02;14.50;99.90
2050;DHT22;8478;49.208;8.806;2023-04-24T00:36:28;14.50;99.90
2050;DHT22;8478;49.208;8.806;2023-04-24T00:41:22;14.40;99.90
2050;DHT22;8478;49.208;8.806;2023-04-24T00:43:50;14.40;99.90
2050;DHT22;8478;49.208;8.806;2023-04-24T00:46:16;14.40;99.90
2050;DHT22;8478;49.208;8.806;2023-04-24T00:48:43;14.40;99.90
2050;DHT22;8478;49.208;8.806;2023-04-24T00:56:02;14.40;99.90
2050;DHT22;8478;49.208;8.806;2023-04-24T00:58:28;14.40;99.90
2050;DHT22;8478;49.208;8.806;2023-04-24T01:00:54;14.40;99.90
2050;DHT22;8478;49.208;8.806;2023-04-24T01:03:22;14.40;99.90
2050;DHT22;8478;49.208;8.806;2023-04-24T01:05:50;14.40;99.90
2050;DHT22;8478;49.208;8.806;2023-04-24T01:08:16;14.40;99.90
2050;DHT22;8478;49.208;8.806;2023-04-24T02:48:19;14.30;99.90
2050;DHT22;8478;49.208;8.806;2023-04-24T02:50:46;14.30;99.90
2050;DHT22;8478;49.208;8.806;2023-04-24T02:53:12;14.30;99.90
2050;DHT22;8478;49.208;8.806;2023-04-24T02:55:37;14.30;99.90
2050;DHT22;8478;49.208;8.806;2023-04-24T02:58:03;14.30;99.90
2050;DHT22;8478;49.208;8.806;2023-04-24T03:00:29;14.30;99.90
2050;DHT22;8478;49.208;8.806;2023-04-24T03:02:55;14.30;99.90
2050;DHT22;8478;49.208;8.806;2023-04-24T03:05:21;14.30;99.90
2050;DHT22;8478;49.208;8.806;2023-04-24T03:07:47;14.30;99.90
2050;DHT22;8478;49.208;8.806;2023-04-24T03:10:12;14.30;99.90
2050;DHT22;8478;49.208;8.806;2023-04-24T03:12:38;14.30;99.90
2050;DHT22;8478;49.208;8.806;2023-04-24T03:15:04;14.30;99.90
2050;DHT22;8478;49.208;8.806;2023-04-24T03:17:30;14.30;99.90
2050;DHT22;8478;49.208;8.806;2023-04-24T03:19:55;14.30;99.90
2050;DHT22;8478;49.208;8.806;2023-04-24T03:22:21;14.30;99.90
2050;DHT22;8478;49.208;8.806;2023-04-24T03:24:47;14.30;99.90
2050;DHT22;8478;49.208;8.806;2023-04-24T03:27:12;14.30;99.90
2050;DHT22;8478;49.208;8.806;2023-04-24T03:29:38;14.30;99.90
2050;DHT22;8478;49.208;8.806;2023-04-24T03:32:04;14.30;99.90
2050;DHT22;8478;49.208;8.806;2023-04-24T03:34:29;14.20;99.90
2050;DHT22;8478;49.208;8.806;2023-04-24T03:36:55;14.30;99.90
2050;DHT22;8478;49.208;8.806;2023-04-24T03:39:21;14.20;99.90
2050;DHT22;8478;49.208;8.806;2023-04-24T03:41:46;14.30;99.90
2050;DHT22;8478;49.208;8.806;2023-04-24T03:44:12;14.30;99.90
2050;DHT22;8478;49.208;8.806;2023-04-24T03:46:37;14.30;99.90
2050;DHT22;8478;49.208;8.806;2023-04-24T03:49:03;14.20;99.90
2050;DHT22;8478;49.208;8.806;2023-04-24T03:51:29;14.20;99.90
2050;DHT22;8478;49.208;8.806;2023-04-24T03:53:56;14.20;99.90
2050;DHT22;8478;49.208;8.806;2023-04-24T03:56:21;14.20;99.90
2050;DHT22;8478;49.208;8.806;2023-04-24T03:58:47;14.20;99.90
2050;DHT22;8478;49.208;8.806;2023-04-24T04:01:13;14.20;99.90
2050;DHT22;8478;49.208;8.806;2023-04-24T04:03:41;14.20;99.90
2050;DHT22;8478;49.208;8.806;2023-04-24T04:06:07;14.20;99.90
2050;DHT22;8478;49.208;8.806;2023-04-24T04:08:33;14.20;99.90
2050;DHT22;8478;49.208;8.806;2023-04-24T04:10:58;14.20;99.90
2050;DHT22;8478;49.208;8.806;2023-04-24T04:13:24;14.20;99.90
2050;DHT22;8478;49.208;8.806;2023-04-24T04:15:50;14.20;99.90
2050;DHT22;8478;49.208;8.806;2023-04-24T04:18:15;14.20;99.90
2050;DHT22;8478;49.208;8.806;2023-04-24T04:20:41;14.20;99.90
2050;DHT22;8478;49.208;8.806;2023-04-24T04:23:07;14.20;99.90
2050;DHT22;8478;49.208;8.806;2023-04-24T04:25:32;14.20;99.90
2050;DHT22;8478;49.208;8.806;2023-04-24T04:27:58;14.20;99.90
2050;DHT22;8478;49.208;8.806;2023-04-24T04:30:25;14.10;99.90
2050;DHT22;8478;49.208;8.806;2023-04-24T04:32:51;14.20;99.90
2050;DHT22;8478;49.208;8.806;2023-04-24T04:35:17;14.20;99.90
2050;DHT22;8478;49.208;8.806;2023-04-24T04:37:43;14.10;99.90
2050;DHT22;8478;49.208;8.806;2023-04-24T04:40:08;14.20;99.90
2050;DHT22;8478;49.208;8.806;2023-04-24T04:42:37;14.20;99.90
2050;DHT22;8478;49.208;8.806;2023-04-24T04:45:07;14.10;99.90
2050;DHT22;8478;49.208;8.806;2023-04-24T04:47:37;14.10;99.90
2050;DHT22;8478;49.208;8.806;2023-04-24T04:50:03;14.10;99.90
2050;DHT22;8478;49.208;8.806;2023-04-24T04:52:29;14.10;99.90
2050;DHT22;8478;49.208;8.806;2023-04-24T04:54:55;14.10;99.90
2050;DHT22;8478;49.208;8.806;2023-04-24T04:57:21;14.10;99.90
2050;DHT22;8478;49.208;8.806;2023-04-24T04:59:46;14.10;99.90
2050;DHT22;8478;49.208;8.806;2023-04-24T05:02:12;14.10;99.90
2050;DHT22;8478;49.208;8.806;2023-04-24T05:04:38;14.10;99.90
2050;DHT22;8478;49.208;8.806;2023-04-24T05:07:03;14.10;99.90
2050;DHT22;8478;49.208;8.806;2023-04-24T05:09:30;14.10;99.90
2050;DHT22;8478;49.208;8.806;2023-04-24T05:11:56;14.10;99.90
2050;DHT22;8478;49.208;8.806;2023-04-24T05:14:21;14.10;99.90
2050;DHT22;8478;49.208;8.806;2023-04-24T05:16:47;14.10;99.90
2050;DHT22;8478;49.208;8.806;2023-04-24T05:19:13;14.00;99.90
2050;DHT22;8478;49.208;8.806;2023-04-24T05:21:40;14.10;99.90
2050;DHT22;8478;49.208;8.806;2023-04-24T05:24:06;14.10;99.90
2050;DHT22;8478;49.208;8.806;2023-04-24T05:26:32;14.10;99.90
2050;DHT22;8478;49.208;8.806;2023-04-24T05:28:58;14.10;99.90
2050;DHT22;8478;49.208;8.806;2023-04-24T05:31:23;14.00;99.90
2050;DHT22;8478;49.208;8.806;2023-04-24T05:33:49;14.00;99.90
2050;DHT22;8478;49.208;8.806;2023-04-24T05:36:15;14.10;99.90
2050;DHT22;8478;49.208;8.806;2023-04-24T05:38:40;14.10;99.90
2050;DHT22;8478;49.208;8.806;2023-04-24T05:41:06;14.00;99.90
2050;DHT22;8478;49.208;8.806;2023-04-24T05:43:32;14.00;99.90
2050;DHT22;8478;49.208;8.806;2023-04-24T05:45:57;14.00;99.90
2050;DHT22;8478;49.208;8.806;2023-04-24T05:48:23;14.00;99.90
2050;DHT22;8478;49.208;8.806;2023-04-24T05:50:49;14.00;99.90
2050;DHT22;8478;49.208;8.806;2023-04-24T05:53:14;14.00;99.90
2050;DHT22;8478;49.208;8.806;2023-04-24T05:55:41;14.00;99.90
2050;DHT22;8478;49.208;8.806;2023-04-24T08:21:57;14.10;99.90
2050;DHT22;8478;49.208;8.806;2023-04-24T08:24:23;14.00;99.90
2050;DHT22;8478;49.208;8.806;2023-04-24T08:26:49;13.90;99.90
2050;DHT22;8478;49.208;8.806;2023-04-24T08:29:16;13.90;99.90
2050;DHT22;8478;49.208;8.806;2023-04-24T08:31:42;13.90;99.90
2050;DHT22;8478;49.208;8.806;2023-04-24T08:34:09;13.90;99.90
2050;DHT22;8478;49.208;8.806;2023-04-24T08:36:36;13.90;99.90
2050;DHT22;8478;49.208;8.806;2023-04-24T08:39:02;13.80;99.90
2050;DHT22;8478;49.208;8.806;2023-04-24T08:41:28;13.90;99.90
2050;DHT22;8478;49.208;8.806;2023-04-24T08:43:54;13.80;99.90
2050;DHT22;8478;49.208;8.806;2023-04-24T08:46:20;13.80;99.90
2050;DHT22;8478;49.208;8.806;2023-04-24T08:48:48;13.80;99.90
2050;DHT22;8478;49.208;8.806;2023-04-24T17:33:27;13.80;99.90
2050;DHT22;8478;49.208;8.806;2023-04-24T17:35:53;13.80;99.90
2050;DHT22;8478;49.208;8.806;2023-04-24T17:38:19;13.80;99.90
2050;DHT22;8478;49.208;8.806;2023-04-24T17:40:46;13.70;99.90
2050;DHT22;8478;49.208;8.806;2023-04-24T17:43:12;13.70;99.90
2050;DHT22;8478;49.208;8.806;2023-04-24T17:45:49;13.70;99.90
2050;DHT22;8478;49.208;8.806;2023-04-24T17:48:17;13.70;99.90
2050;DHT22;8478;49.208;8.806;2023-04-24T17:50:43;13.70;99.90
2050;DHT22;8478;49.208;8.806;2023-04-24T17:53:09;13.60;99.90
2050;DHT22;8478;49.208;8.806;2023-04-24T17:55:38;13.60;99.90
2050;DHT22;8478;49.208;8.806;2023-04-24T17:58:04;13.70;99.90
2050;DHT22;8478;49.208;8.806;2023-04-24T18:00:31;13.60;99.90
2050;DHT22;8478;49.208;8.806;2023-04-24T18:02:57;13.70;99.90
2050;DHT22;8478;49.208;8.806;2023-04-24T18:05:35;13.70;99.90
2050;DHT22;8478;49.208;8.806;2023-04-24T18:08:02;13.70;99.90
2050;DHT22;8478;49.208;8.806;2023-04-24T18:10:29;13.70;99.90
2050;DHT22;8478;49.208;8.806;2023-04-24T18:13:00;13.70;99.90
2050;DHT22;8478;49.208;8.806;2023-04-24T18:15:26;13.70;99.90
2050;DHT22;8478;49.208;8.806;2023-04-24T18:17:52;13.70;99.90
2050;DHT22;8478;49.208;8.806;2023-04-24T18:20:18;13.70;99.90
2050;DHT22;8478;49.208;8.806;2023-04-24T18:22:45;13.70;99.90
2050;DHT22;8478;49.208;8.806;2023-04-24T18:25:11;13.70;99.90
2050;DHT22;8478;49.208;8.806;2023-04-24T18:27:38;13.70;99.90
2050;DHT22;8478;49.208;8.806;2023-04-24T18:30:05;13.70;99.90
2050;DHT22;8478;49.208;8.806;2023-04-24T18:32:31;13.70;99.90
2050;DHT22;8478;49.208;8.806;2023-04-24T18:34:57;13.70;99.90
2050;DHT22;8478;49.208;8.806;2023-04-24T18:37:22;13.70;99.90
2050;DHT22;8478;49.208;8.806;2023-04-24T18:39:48;13.70;99.90
2050;DHT22;8478;49.208;8.806;2023-04-24T18:42:18;13.60;99.90
2050;DHT22;8478;49.208;8.806;2023-04-24T18:44:44;13.70;99.90
2050;DHT22;8478;49.208;8.806;2023-04-24T18:47:10;13.60;99.90
2050;DHT22;8478;49.208;8.806;2023-04-24T18:49:36;13.70;99.90
2050;DHT22;8478;49.208;8.806;2023-04-24T18:52:02;13.70;99.90
2050;DHT22;8478;49.208;8.806;2023-04-24T18:54:27;13.70;99.90
2050;DHT22;8478;49.208;8.806;2023-04-24T18:56:53;13.70;99.90
2050;DHT22;8478;49.208;8.806;2023-04-24T18:59:19;13.70;99.90
2050;DHT22;8478;49.208;8.806;2023-04-24T19:01:45;13.60;99.90
2050;DHT22;8478;49.208;8.806;2023-04-24T19:04:11;13.70;99.90
2050;DHT22;8478;49.208;8.806;2023-04-24T19:06:38;13.70;99.90
2050;DHT22;8478;49.208;8.806;2023-04-24T19:09:04;13.70;99.90
2050;DHT22;8478;49.208;8.806;2023-04-24T19:11:30;13.60;99.90
2050;DHT22;8478;49.208;8.806;2023-04-24T19:13:56;13.60;99.90
2050;DHT22;8478;49.208;8.806;2023-04-24T19:16:24;13.70;99.90
2050;DHT22;8478;49.208;8.806;2023-04-24T19:18:50;13.70;99.90
2050;DHT22;8478;49.208;8.806;2023-04-24T19:21:16;13.70;99.90
2050;DHT22;8478;49.208;8.806;2023-04-24T19:23:41;13.60;99.90
2050;DHT22;8478;49.208;8.806;2023-04-24T19:26:09;13.70;99.90
2050;DHT22;8478;49.208;8.806;2023-04-24T19:28:35;13.70;99.90
2050;DHT22;8478;49.208;8.806;2023-04-24T19:31:01;13.60;99.90
2050;DHT22;8478;49.208;8.806;2023-04-24T19:33:27;13.60;99.90
2050;DHT22;8478;49.208;8.806;2023-04-24T19:35:53;13.60;99.90
2050;DHT22;8478;49.208;8.806;2023-04-24T19:38:19;13.70;99.90
2050;DHT22;8478;49.208;8.806;2023-04-24T19:40:45;13.60;99.90
2050;DHT22;8478;49.208;8.806;2023-04-24T19:43:11;13.60;99.90
2050;DHT22;8478;49.208;8.806;2023-04-24T19:45:36;13.60;99.90
2050;DHT22;8478;49.208;8.806;2023-04-24T19:48:02;13.60;99.90
2050;DHT22;8478;49.208;8.806;2023-04-24T19:50:28;13.60;99.90
2050;DHT22;8478;49.208;8.806;2023-04-24T19:52:56;13.60;99.90
2050;DHT22;8478;49.208;8.806;2023-04-24T19:55:21;13.60;99.90
2050;DHT22;8478;49.208;8.806;2023-04-24T19:57:47;13.60;99.90
2050;DHT22;8478;49.208;8.806;2023-04-24T20:00:13;13.60;99.90
2050;DHT22;8478;49.208;8.806;2023-04-24T20:02:39;13.60;99.90
2050;DHT22;8478;49.208;8.806;2023-04-24T20:05:05;13.60;99.90
2050;DHT22;8478;49.208;8.806;2023-04-24T20:07:31;13.60;99.90
2050;DHT22;8478;49.208;8.806;2023-04-24T20:09:56;13.60;99.90
2050;DHT22;8478;49.208;8.806;2023-04-24T20:12:22;13.60;99.90
2050;DHT22;8478;49.208;8.806;2023-04-24T20:14:47;13.60;99.90
2050;DHT22;8478;49.208;8.806;2023-04-24T20:17:14;13.60;99.90
2050;DHT22;8478;49.208;8.806;2023-04-24T20:19:40;13.60;99.90
2050;DHT22;8478;49.208;8.806;2023-04-24T20:22:07;13.60;99.90
2050;DHT22;8478;49.208;8.806;2023-04-24T20:24:33;13.60;99.90
2050;DHT22;8478;49.208;8.806;2023-04-24T20:26:58;13.60;99.90
2050;DHT22;8478;49.208;8.806;2023-04-24T20:29:25;13.60;99.90
2050;DHT22;8478;49.208;8.806;2023-04-24T20:31:51;13.60;99.90
2050;DHT22;8478;49.208;8.806;2023-04-24T20:34:17;13.60;99.90
2050;DHT22;8478;49.208;8.806;2023-04-24T20:36:43;13.60;99.90
2050;DHT22;8478;49.208;8.806;2023-04-24T20:39:08;13.60;99.90
2050;DHT22;8478;49.208;8.806;2023-04-24T20:41:34;13.60;99.90
2050;DHT22;8478;49.208;8.806;2023-04-24T20:44:01;13.60;99.90
2050;DHT22;8478;49.208;8.806;2023-04-24T20:46:27;13.60;99.90
2050;DHT22;8478;49.208;8.806;2023-04-24T20:48:53;13.60;99.90
2050;DHT22;8478;49.208;8.806;2023-04-24T20:51:18;13.60;99.90
2050;DHT22;8478;49.208;8.806;2023-04-24T20:53:45;13.60;99.90
2050;DHT22;8478;49.208;8.806;2023-04-24T20:56:16;13.60;99.90
2050;DHT22;8478;49.208;8.806;2023-04-24T20:58:45;13.60;99.90
2050;DHT22;8478;49.208;8.806;2023-04-24T21:01:11;13.60;99.90
2050;DHT22;8478;49.208;8.806;2023-04-24T21:03:37;13.60;99.90
2050;DHT22;8478;49.208;8.806;2023-04-24T21:06:03;13.60;99.90
2050;DHT22;8478;49.208;8.806;2023-04-24T21:08:28;13.60;99.90
2050;DHT22;8478;49.208;8.806;2023-04-24T21:10:54;13.50;99.90
2050;DHT22;8478;49.208;8.806;2023-04-24T21:13:20;13.50;99.90
2050;DHT22;8478;49.208;8.806;2023-04-24T21:15:45;13.60;99.90
2050;DHT22;8478;49.208;8.806;2023-04-24T21:18:11;13.50;99.90
2050;DHT22;8478;49.208;8.806;2023-04-24T21:20:37;13.50;99.90
2050;DHT22;8478;49.208;8.806;2023-04-24T21:23:03;13.50;99.90
2050;DHT22;8478;49.208;8.806;2023-04-24T21:25:28;13.50;99.90
2050;DHT22;8478;49.208;8.806;2023-04-24T21:27:54;13.60;99.90
2050;DHT22;8478;49.208;8.806;2023-04-24T21:30:21;13.60;99.90
2050;DHT22;8478;49.208;8.806;2023-04-24T21:32:47;13.60;99.90
2050;DHT22;8478;49.208;8.806;2023-04-24T21:35:13;13.50;99.90
2050;DHT22;8478;49.208;8.806;2023-04-24T21:37:38;13.50;99.90
2050;DHT22;8478;49.208;8.806;2023-04-24T21:40:05;13.50;99.90
2050;DHT22;8478;49.208;8.806;2023-04-24T21:42:31;13.50;99.90
2050;DHT22;8478;49.208;8.806;2023-04-24T21:44:57;13.60;99.90
2050;DHT22;8478;49.208;8.806;2023-04-24T21:47:23;13.50;99.90
2050;DHT22;8478;49.208;8.806;2023-04-24T21:49:48;13.50;99.90
2050;DHT22;8478;49.208;8.806;2023-04-24T21:52:14;13.50;99.90
2050;DHT22;8478;49.208;8.806;2023-04-24T21:54:40;13.50;99.90
2050;DHT22;8478;49.208;8.806;2023-04-24T21:57:05;13.50;99.90
2050;DHT22;8478;49.208;8.806;2023-04-24T21:59:33;13.50;99.90
2050;DHT22;8478;49.208;8.806;2023-04-24T22:01:58;13.50;99.90
2050;DHT22;8478;49.208;8.806;2023-04-24T22:04:24;13.60;99.90
2050;DHT22;8478;49.208;8.806;2023-04-24T22:06:50;13.50;99.90
2050;DHT22;8478;49.208;8.806;2023-04-24T22:09:18;13.50;99.90
2050;DHT22;8478;49.208;8.806;2023-04-24T22:11:44;13.50;99.90
2050;DHT22;8478;49.208;8.806;2023-04-24T22:14:10;13.50;99.90
2050;DHT22;8478;49.208;8.806;2023-04-24T22:16:35;13.50;99.90
2050;DHT22;8478;49.208;8.806;2023-04-24T22:19:01;13.50;99.90
2050;DHT22;8478;49.208;8.806;2023-04-24T22:21:27;13.50;99.90
2050;DHT22;8478;49.208;8.806;2023-04-24T22:23:53;13.50;99.90
2050;DHT22;8478;49.208;8.806;2023-04-24T22:26:19;13.50;99.90
2050;DHT22;8478;49.208;8.806;2023-04-24T22:28:44;13.50;99.90
2050;DHT22;8478;49.208;8.806;2023-04-24T22:31:10;13.50;99.90
2050;DHT22;8478;49.208;8.806;2023-04-24T22:33:36;13.50;99.90
2050;DHT22;8478;49.208;8.806;2023-04-24T22:36:01;13.50;99.90
2050;DHT22;8478;49.208;8.806;2023-04-24T22:38:27;13.50;99.90
2050;DHT22;8478;49.208;8.806;2023-04-24T22:40:53;13.50;99.90
2050;DHT22;8478;49.208;8.806;2023-04-24T22:43:19;13.50;99.90
2050;DHT22;8478;49.208;8.806;2023-04-24T22:45:44;13.50;99.90
2050;DHT22;8478;49.208;8.806;2023-04-24T22:48:10;13.50;99.90
2050;DHT22;8478;49.208;8.806;2023-04-24T22:50:36;13.50;99.90
2050;DHT22;8478;49.208;8.806;2023-04-24T22:53:02;13.50;99.90
2050;DHT22;8478;49.208;8.806;2023-04-24T22:55:28;13.50;99.90
2050;DHT22;8478;49.208;8.806;2023-04-24T22:57:55;13.50;99.90
2050;DHT22;8478;49.208;8.806;2023-04-24T23:00:22;13.50;99.90
2050;DHT22;8478;49.208;8.806;2023-04-24T23:02:48;13.50;99.90
2050;DHT22;8478;49.208;8.806;2023-04-24T23:05:13;13.50;99.90
2050;DHT22;8478;49.208;8.806;2023-04-24T23:07:39;13.50;99.90
2050;DHT22;8478;49.208;8.806;2023-04-24T23:10:05;13.50;99.90
2050;DHT22;8478;49.208;8.806;2023-04-24T23:12:31;13.50;99.90
2050;DHT22;8478;49.208;8.806;2023-04-24T23:14:57;13.50;99.90
2050;DHT22;8478;49.208;8.806;2023-04-24T23:17:22;13.50;99.90
2050;DHT22;8478;49.208;8.806;2023-04-24T23:19:48;13.50;99.90
2050;DHT22;8478;49.208;8.806;2023-04-24T23:22:14;13.50;99.90
2050;DHT22;8478;49.208;8.806;2023-04-24T23:24:40;13.50;99.90
2050;DHT22;8478;49.208;8.806;2023-04-24T23:27:06;13.50;99.90
2050;DHT22;8478;49.208;8.806;2023-04-24T23:58:51;13.40;99.90
